Time;durP1;ratioP1;P1;durP2;ratioP2;P2;SDS_P1;SDS_P2;PMS_P1;PMS_P2;Temp;Humidity;BMP_temperature;BMP_pressure;BME280_temperature;BME280_humidity;BME280_pressure;Samples;Min_cycle;Max_cycle;Signal;HPM_P1;HPM_P2
2022/05/08 00:01:16;;;;;;;;;;;;;;;6.47;100.00;100449.78;5037056;28;1271;-54
2022/05/08 00:03:43;;;;;;;;;;;;;;;6.53;100.00;100449.16;5054926;28;870;-54
2022/05/08 00:06:11;;;;;;;;;;;;;;;6.59;100.00;100448.84;5055064;28;957;-54
2022/05/08 00:08:38;;;;;;;;;;;;;;;6.59;100.00;100452.38;5054786;28;918;-54
2022/05/08 00:11:04;;;;;;;;;;;;;;;6.53;100.00;100440.13;5054735;28;910;-55
2022/05/08 00:13:31;;;;;;;;;;;;;;;6.49;100.00;100447.47;5054834;28;969;-54
2022/05/08 00:15:58;;;;;;;;;;;;;;;6.46;100.00;100443.47;5054620;28;935;-54
2022/05/08 00:18:25;;;;;;;;;;;;;;;6.45;100.00;100439.16;5054533;28;1890;-54
2022/05/08 00:20:52;;;;;;;;;;;;;;;6.49;100.00;100439.25;5036676;28;867;-55
2022/05/08 00:23:18;;;;;;;;;;;;;;;6.51;100.00;100437.72;5054560;28;806;-55
2022/05/08 00:25:45;;;;;;;;;;;;;;;6.53;100.00;100437.38;5054904;28;1017;-54
2022/05/08 00:28:12;;;;;;;;;;;;;;;6.49;100.00;100428.25;5054346;28;1274;-54
2022/05/08 00:30:40;;;;;;;;;;;;;;;6.40;100.00;100428.47;5054489;28;865;-55
2022/05/08 00:33:07;;;;;;;;;;;;;;;6.29;100.00;100428.22;5054446;28;858;-54
2022/05/08 00:35:34;;;;;;;;;;;;;;;6.19;100.00;100425.22;5054465;28;811;-53
2022/05/08 00:38:01;;;;;;;;;;;;;;;6.07;100.00;100431.63;5054404;28;1910;-54
2022/05/08 00:40:28;;;;;;;;;;;;;;;5.95;100.00;100418.78;5053841;28;915;-55
2022/05/08 00:42:55;;;;;;;;;;;;;;;5.85;100.00;100416.59;5053757;28;848;-55
2022/05/08 00:45:22;;;;;;;;;;;;;;;5.79;100.00;100409.78;5054187;28;883;-55
2022/05/08 00:47:48;;;;;;;;;;;;;;;5.71;100.00;100412.31;5054138;28;850;-54
2022/05/08 00:50:15;;;;;;;;;;;;;;;5.66;100.00;100409.06;5054127;28;838;-54
2022/05/08 00:52:41;;;;;;;;;;;;;;;5.53;100.00;100411.91;5053948;28;867;-53
2022/05/08 00:55:08;;;;;;;;;;;;;;;5.43;100.00;100409.66;5054324;28;881;-54
2022/05/08 00:57:36;;;;;;;;;;;;;;;5.39;100.00;100413.47;5053923;28;1969;-55
2022/05/08 01:00:04;;;;;;;;;;;;;;;5.33;100.00;100410.19;5035956;28;854;-54
2022/05/08 01:02:31;;;;;;;;;;;;;;;5.34;100.00;100416.50;5053811;28;871;-55
2022/05/08 01:04:57;;;;;;;;;;;;;;;5.40;100.00;100415.06;5053753;28;818;-55
2022/05/08 01:07:26;;;;;;;;;;;;;;;5.55;100.00;100413.47;5053788;28;842;-54
2022/05/08 01:09:53;;;;;;;;;;;;;;;5.55;100.00;100402.50;5019583;28;820;-55
2022/05/08 01:12:21;;;;;;;;;;;;;;;5.51;100.00;100408.72;5053555;28;850;-54
2022/05/08 01:15:08;;;;;;;;;;;;;;;5.53;100.00;100402.88;5053559;28;807;-53
2022/05/08 01:17:35;;;;;;;;;;;;;;;5.65;100.00;100402.75;5053385;28;2126;-54
2022/05/08 01:20:01;;;;;;;;;;;;;;;5.67;100.00;100400.47;5053414;28;867;-55
2022/05/08 01:22:28;;;;;;;;;;;;;;;5.65;100.00;100401.97;5053565;28;826;-55
2022/05/08 01:24:55;;;;;;;;;;;;;;;5.48;100.00;100398.47;5053472;28;891;-55
2022/05/08 01:27:22;;;;;;;;;;;;;;;5.30;100.00;100395.25;5053012;28;1272;-55
2022/05/08 01:29:49;;;;;;;;;;;;;;;5.27;100.00;100401.44;5053349;28;815;-54
2022/05/08 01:32:15;;;;;;;;;;;;;;;5.35;100.00;100394.19;5053373;28;1037;-55
2022/05/08 01:34:42;;;;;;;;;;;;;;;5.39;100.00;100399.78;5053249;28;841;-54
2022/05/08 01:37:08;;;;;;;;;;;;;;;5.37;100.00;100394.63;5053232;28;1975;-55
2022/05/08 01:39:35;;;;;;;;;;;;;;;5.31;100.00;100394.13;5053233;28;893;-55
2022/05/08 01:42:04;;;;;;;;;;;;;;;5.30;100.00;100386.25;5052893;28;1030;-54
2022/05/08 01:44:32;;;;;;;;;;;;;;;5.29;100.00;100393.66;5052978;28;930;-52
2022/05/08 01:49:44;;;;;;;;;;;;;;;5.40;100.00;100388.47;5053326;28;648;-54
2022/05/08 01:52:10;;;;;;;;;;;;;;;5.33;100.00;100391.00;5052485;28;901;-55
2022/05/08 01:54:36;;;;;;;;;;;;;;;5.21;100.00;100396.56;5052409;28;823;-54
2022/05/08 01:57:03;;;;;;;;;;;;;;;5.17;100.00;100395.69;5052750;28;1942;-54
2022/05/08 01:59:30;;;;;;;;;;;;;;;5.19;100.00;100399.66;5052712;28;949;-54
2022/05/08 02:01:57;;;;;;;;;;;;;;;5.26;100.00;100404.53;5052773;28;878;-55
2022/05/08 02:04:24;;;;;;;;;;;;;;;5.26;100.00;100399.84;5035025;28;878;-54
2022/05/08 02:06:51;;;;;;;;;;;;;;;5.24;100.00;100402.13;5052688;28;862;-54
2022/05/08 02:09:18;;;;;;;;;;;;;;;5.22;100.00;100393.47;5052691;28;830;-54
2022/05/08 02:11:44;;;;;;;;;;;;;;;5.22;100.00;100403.63;5052448;28;871;-55
2022/05/08 02:14:11;;;;;;;;;;;;;;;5.19;100.00;100399.66;5052355;28;863;-55
2022/05/08 02:16:38;;;;;;;;;;;;;;;5.17;100.00;100395.69;5052503;28;1956;-54
2022/05/08 02:19:05;;;;;;;;;;;;;;;5.13;100.00;100392.06;5052375;28;857;-55
2022/05/08 02:21:31;;;;;;;;;;;;;;;5.11;100.00;100397.88;5052468;28;795;-54
2022/05/08 02:23:58;;;;;;;;;;;;;;;5.07;100.00;100395.03;5052425;28;905;-55
2022/05/08 02:26:25;;;;;;;;;;;;;;;5.07;100.00;100396.97;5052535;28;980;-54
2022/05/08 02:28:52;;;;;;;;;;;;;;;5.09;100.00;100391.94;5052024;28;1209;-54
2022/05/08 02:31:18;;;;;;;;;;;;;;;5.11;100.00;100397.88;5052103;28;914;-55
2022/05/08 02:33:45;;;;;;;;;;;;;;;5.11;100.00;100398.66;5052166;28;854;-54
2022/05/08 02:36:11;;;;;;;;;;;;;;;5.09;100.00;100400.16;5052064;28;807;-53
2022/05/08 02:38:38;;;;;;;;;;;;;;;5.06;100.00;100400.88;5052063;28;1910;-54
2022/05/08 02:41:04;;;;;;;;;;;;;;;5.05;100.00;100410.22;5051843;28;965;-54
2022/05/08 02:43:31;;;;;;;;;;;;;;;5.06;100.00;100401.69;5051999;28;917;-53
2022/05/08 02:45:59;;;;;;;;;;;;;;;5.10;100.00;100401.78;5051957;28;832;-55
2022/05/08 02:48:27;;;;;;;;;;;;;;;5.14;100.00;100404.59;5051791;28;878;-54
2022/05/08 02:50:53;;;;;;;;;;;;;;;5.16;100.00;100400.34;5052056;28;882;-55
2022/05/08 02:53:21;;;;;;;;;;;;;;;5.21;100.00;100407.53;5051842;28;874;-54
2022/05/08 02:58:33;;;;;;;;;;;;;;;5.26;100.00;100405.31;5051933;28;1890;-55
2022/05/08 03:01:02;;;;;;;;;;;;;;;5.28;100.00;100402.22;5051887;28;807;-55
2022/05/08 03:03:30;;;;;;;;;;;;;;;5.28;100.00;100407.72;5051513;28;935;-54
2022/05/08 03:05:56;;;;;;;;;;;;;;;5.26;100.00;100412.75;5051378;28;878;-54
2022/05/08 03:08:23;;;;;;;;;;;;;;;5.24;100.00;100410.34;5033838;28;918;-54
2022/05/08 03:13:39;;;;;;;;;;;;;;;5.30;100.00;100408.16;5052196;28;684;-54
2022/05/08 03:16:07;;;;;;;;;;;;;;;5.33;100.00;100410.19;5051406;28;857;-52
2022/05/08 03:18:34;;;;;;;;;;;;;;;5.38;100.00;100412.69;5051384;28;1890;-54
2022/05/08 03:21:01;;;;;;;;;;;;;;;5.47;100.00;100412.50;5051348;28;941;-54
2022/05/08 03:23:28;;;;;;;;;;;;;;;5.59;100.00;100420.66;5051585;28;826;-55
2022/05/08 03:25:55;;;;;;;;;;;;;;;5.72;100.00;100424.13;5051678;28;903;-55
2022/05/08 03:28:21;;;;;;;;;;;;;;;5.84;100.00;100428.69;5051237;28;1287;-54
2022/05/08 03:30:48;;;;;;;;;;;;;;;5.89;100.00;100431.19;5033448;28;2227;-54
2022/05/08 03:33:15;;;;;;;;;;;;;;;5.93;100.00;100424.63;5033682;28;934;-54
2022/05/08 03:35:42;;;;;;;;;;;;;;;6.02;100.00;100420.94;5051286;28;878;-54
2022/05/08 03:38:08;;;;;;;;;;;;;;;6.11;100.00;100427.03;5051144;28;1950;-54
2022/05/08 03:40:35;;;;;;;;;;;;;;;6.23;100.00;100424.16;5051537;28;869;-55
2022/05/08 03:43:01;;;;;;;;;;;;;;;6.31;100.00;100420.41;5051273;28;818;-55
2022/05/08 03:45:31;;;;;;;;;;;;;;;6.37;100.00;100423.69;5051190;28;855;-54
2022/05/08 03:47:59;;;;;;;;;;;;;;;6.49;100.00;100420.81;5051214;28;910;-54
2022/05/08 03:50:27;;;;;;;;;;;;;;;6.70;100.00;100425.16;5051015;28;1089;-55
2022/05/08 03:52:54;;;;;;;;;;;;;;;6.89;100.00;100418.84;5051048;28;891;-55
2022/05/08 03:55:20;;;;;;;;;;;;;;;7.03;100.00;100427.38;5051144;28;925;-53
2022/05/08 03:57:48;;;;;;;;;;;;;;;7.20;100.00;100430.84;5051082;28;1882;-52
2022/05/08 04:00:15;;;;;;;;;;;;;;;7.35;100.00;100425.25;5051292;28;945;-54
2022/05/08 04:02:42;;;;;;;;;;;;;;;7.47;100.00;100426.25;5051072;28;807;-55
2022/05/08 04:05:09;;;;;;;;;;;;;;;7.57;100.00;100431.13;5051036;28;928;-55
2022/05/08 04:07:37;;;;;;;;;;;;;;;7.73;100.00;100433.75;5051332;28;882;-54
2022/05/08 04:10:04;;;;;;;;;;;;;;;7.89;100.00;100439.13;5050793;28;937;-55
2022/05/08 04:12:31;;;;;;;;;;;;;;;8.06;99.98;100448.81;5051347;28;846;-55
2022/05/08 04:14:59;;;;;;;;;;;;;;;8.27;98.34;100445.59;5050788;28;906;-55
2022/05/08 04:17:29;;;;;;;;;;;;;;;8.48;97.84;100447.91;5053545;28;1945;-54
2022/05/08 04:19:57;;;;;;;;;;;;;;;8.69;97.41;100453.69;5054888;28;858;-54
2022/05/08 04:25:10;;;;;;;;;;;;;;;9.27;95.96;100451.63;5054605;28;1519;-55
2022/05/08 04:27:37;;;;;;;;;;;;;;;9.60;94.50;100439.72;5054155;28;1363;-55
2022/05/08 04:30:04;;;;;;;;;;;;;;;9.96;92.76;100445.56;5054628;28;939;-53
2022/05/08 04:32:30;;;;;;;;;;;;;;;10.08;90.56;100441.72;5054757;28;862;-55
2022/05/08 04:34:57;;;;;;;;;;;;;;;10.19;90.31;100453.63;5054403;28;799;-55
2022/05/08 04:37:25;;;;;;;;;;;;;;;10.35;88.65;100442.31;5054503;28;1910;-55
2022/05/08 04:39:51;;;;;;;;;;;;;;;10.49;89.25;100455.41;5054282;28;810;-55
2022/05/08 04:42:18;;;;;;;;;;;;;;;10.74;87.98;100448.06;5054389;28;897;-55
2022/05/08 04:44:45;;;;;;;;;;;;;;;10.95;86.82;100446.56;5054173;28;1012;-54
2022/05/08 04:47:11;;;;;;;;;;;;;;;11.07;86.00;100448.97;5054053;28;930;-55
2022/05/08 04:49:38;;;;;;;;;;;;;;;11.24;85.57;100456.56;5054496;28;826;-55
2022/05/08 04:52:05;;;;;;;;;;;;;;;11.42;85.01;100450.25;5053992;28;971;-52
2022/05/08 04:54:31;;;;;;;;;;;;;;;11.52;84.01;100445.91;5054051;28;913;-55
2022/05/08 04:57:01;;;;;;;;;;;;;;;11.79;83.30;100452.66;5053953;28;1941;-53
2022/05/08 04:59:28;;;;;;;;;;;;;;;12.07;81.23;100450.31;5053852;28;886;-55
2022/05/08 05:01:55;;;;;;;;;;;;;;;12.26;79.49;100449.91;5053895;28;858;-55
2022/05/08 05:04:22;;;;;;;;;;;;;;;12.50;78.80;100450.25;5053809;28;886;-55
2022/05/08 05:06:49;;;;;;;;;;;;;;;12.63;77.60;100443.06;5053652;28;903;-55
2022/05/08 05:09:15;;;;;;;;;;;;;;;12.52;77.47;100450.66;5035810;28;857;-55
2022/05/08 05:11:41;;;;;;;;;;;;;;;12.44;77.34;100447.13;5053683;28;850;-55
2022/05/08 05:14:08;;;;;;;;;;;;;;;12.70;76.61;100445.84;5054022;28;822;-55
2022/05/08 05:16:35;;;;;;;;;;;;;;;13.13;73.88;100451.22;5053950;28;1955;-55
2022/05/08 05:19:01;;;;;;;;;;;;;;;13.35;71.95;100449.13;5053657;28;822;-54
2022/05/08 05:21:28;;;;;;;;;;;;;;;13.39;70.13;100454.66;5053560;28;831;-54
2022/05/08 05:23:55;;;;;;;;;;;;;;;13.37;70.77;100452.28;5053439;28;937;-55
2022/05/08 05:26:22;;;;;;;;;;;;;;;13.54;70.05;100456.16;5053754;28;1068;-54
2022/05/08 05:28:48;;;;;;;;;;;;;;;13.48;70.06;100457.78;5052962;28;1330;-55
2022/05/08 05:31:15;;;;;;;;;;;;;;;13.50;69.42;100449.84;5053370;28;803;-55
2022/05/08 05:33:43;;;;;;;;;;;;;;;13.64;69.51;100452.53;5035316;28;841;-54
2022/05/08 05:36:09;;;;;;;;;;;;;;;13.65;68.34;100454.09;5053346;28;819;-55
2022/05/08 05:38:36;;;;;;;;;;;;;;;13.67;68.56;100442.56;5053073;28;2027;-55
2022/05/08 05:41:02;;;;;;;;;;;;;;;14.16;67.68;100450.91;5053216;28;826;-55
2022/05/08 05:43:29;;;;;;;;;;;;;;;14.55;65.56;100445.00;5053101;28;851;-55
2022/05/08 05:48:40;;;;;;;;;;;;;;;15.39;61.64;100445.53;5053106;28;684;-55
2022/05/08 05:51:07;;;;;;;;;;;;;;;15.74;61.49;100449.78;5052965;28;842;-55
2022/05/08 05:53:34;;;;;;;;;;;;;;;16.31;59.15;100442.47;5052990;28;787;-56
2022/05/08 05:56:01;;;;;;;;;;;;;;;16.81;57.20;100444.31;5052830;28;1004;-55
2022/05/08 05:58:27;;;;;;;;;;;;;;;17.35;55.76;100443.19;5052787;28;1943;-55
2022/05/08 06:00:54;;;;;;;;;;;;;;;17.96;54.92;100447.34;5052711;28;1197;-55
2022/05/08 06:03:20;;;;;;;;;;;;;;;18.88;52.93;100440.53;5053017;28;838;-55
2022/05/08 06:05:47;;;;;;;;;;;;;;;19.26;50.83;100439.78;5053058;28;858;-55
2022/05/08 06:08:13;;;;;;;;;;;;;;;19.68;49.43;100447.31;5053432;28;736;-54
2022/05/08 06:10:40;;;;;;;;;;;;;;;19.91;48.18;100449.00;5052686;28;881;-55
2022/05/08 06:13:07;;;;;;;;;;;;;;;19.74;47.47;100442.75;5053269;28;806;-55
2022/05/08 06:15:33;;;;;;;;;;;;;;;20.06;47.80;100444.47;5052581;28;834;-55
2022/05/08 06:18:00;;;;;;;;;;;;;;;20.56;46.02;100445.53;5052253;28;1947;-55
2022/05/08 06:20:28;;;;;;;;;;;;;;;21.25;45.27;100437.41;5052434;28;878;-55
2022/05/08 06:22:55;;;;;;;;;;;;;;;21.36;44.02;100432.94;5052689;28;830;-54
2022/05/08 06:25:22;;;;;;;;;;;;;;;20.85;44.46;100438.91;5052671;28;910;-56
2022/05/08 06:27:48;;;;;;;;;;;;;;;20.67;43.95;100439.53;5052199;28;1291;-54
2022/05/08 06:30:15;;;;;;;;;;;;;;;20.12;45.48;100445.47;5052278;28;783;-55
2022/05/08 06:32:42;;;;;;;;;;;;;;;20.32;45.13;100438.78;5052093;28;866;-55
2022/05/08 06:35:09;;;;;;;;;;;;;;;20.58;44.75;100447.91;5052048;28;853;-55
2022/05/08 06:37:36;;;;;;;;;;;;;;;20.84;44.29;100436.53;5051902;28;1967;-55
2022/05/08 06:40:03;;;;;;;;;;;;;;;21.06;43.71;100439.31;5051625;28;819;-54
2022/05/08 06:42:31;;;;;;;;;;;;;;;21.03;43.31;100445.88;5051943;28;800;-54
2022/05/08 06:44:56;;;;;;;;;;;;;;;20.16;45.01;100434.91;5052258;28;827;-55
2022/05/08 06:47:23;;;;;;;;;;;;;;;21.12;44.40;100443.09;5051904;28;862;-55
2022/05/08 06:49:49;;;;;;;;;;;;;;;22.05;42.24;100430.97;5051936;28;803;-55
2022/05/08 06:52:16;;;;;;;;;;;;;;;22.24;40.94;100436.66;5051909;28;870;-55
2022/05/08 06:54:43;;;;;;;;;;;;;;;22.28;41.05;100437.28;5051685;28;950;-54
2022/05/08 06:57:12;;;;;;;;;;;;;;;21.92;41.32;100439.53;5051648;28;1890;-55
2022/05/08 07:02:24;;;;;;;;;;;;;;;21.55;42.68;100447.88;5051786;28;699;-54
2022/05/08 07:04:50;;;;;;;;;;;;;;;22.11;40.46;100445.22;5051692;28;815;-55
2022/05/08 07:07:17;;;;;;;;;;;;;;;22.42;40.29;100445.91;5051573;28;1057;-56
2022/05/08 07:09:44;;;;;;;;;;;;;;;23.00;40.15;100444.13;5051515;28;843;-54
2022/05/08 07:12:10;;;;;;;;;;;;;;;23.07;39.63;100445.84;5051505;28;886;-55
2022/05/08 07:14:40;;;;;;;;;;;;;;;23.09;39.17;100448.97;5051578;28;822;-55
2022/05/08 07:17:06;;;;;;;;;;;;;;;22.81;39.88;100446.19;5051717;28;1922;-56
2022/05/08 07:19:33;;;;;;;;;;;;;;;22.40;39.86;100451.22;5051434;28;791;-55
2022/05/08 07:21:59;;;;;;;;;;;;;;;22.43;40.19;100449.50;5051594;28;927;-55
2022/05/08 07:24:26;;;;;;;;;;;;;;;23.13;38.95;100454.41;5051405;28;806;-55
2022/05/08 07:26:53;;;;;;;;;;;;;;;23.05;38.36;100453.22;5051320;28;1314;-55
2022/05/08 07:29:20;;;;;;;;;;;;;;;22.89;38.70;100446.63;5051442;28;830;-55
2022/05/08 07:31:46;;;;;;;;;;;;;;;22.92;38.38;100447.72;5051302;28;791;-56
2022/05/08 07:36:58;;;;;;;;;;;;;;;23.13;37.90;100443.16;5051223;28;1906;-55
2022/05/08 07:39:25;;;;;;;;;;;;;;;23.45;37.88;100436.00;5051280;28;834;-55
2022/05/08 07:41:52;;;;;;;;;;;;;;;23.75;37.59;100444.63;5051553;28;854;-55
2022/05/08 07:44:18;;;;;;;;;;;;;;;23.97;37.00;100441.56;5051476;28;851;-55
2022/05/08 07:46:45;;;;;;;;;;;;;;;24.01;37.09;100447.81;5051298;28;822;-56
2022/05/08 07:49:12;;;;;;;;;;;;;;;23.79;37.03;100440.41;5051391;28;882;-56
2022/05/08 07:51:38;;;;;;;;;;;;;;;23.73;37.20;100438.69;5052848;28;882;-54
2022/05/08 07:54:05;;;;;;;;;;;;;;;23.63;37.15;100443.59;5055162;28;850;-55
2022/05/08 07:56:31;;;;;;;;;;;;;;;23.61;37.21;100438.41;5055117;28;1893;-55
2022/05/08 07:58:58;;;;;;;;;;;;;;;23.70;37.03;100446.06;5055066;28;822;-54
2022/05/08 08:01:25;;;;;;;;;;;;;;;23.57;37.89;100442.69;5055103;28;884;-55
2022/05/08 08:03:51;;;;;;;;;;;;;;;23.57;37.59;100440.63;5055129;28;814;-55
2022/05/08 08:06:18;;;;;;;;;;;;;;;23.77;37.17;100442.13;5054918;28;901;-54
2022/05/08 08:08:45;;;;;;;;;;;;;;;24.14;35.75;100439.09;5055219;28;858;-55
2022/05/08 08:11:11;;;;;;;;;;;;;;;24.03;35.50;100442.44;5054824;28;965;-56
2022/05/08 08:13:38;;;;;;;;;;;;;;;24.18;35.52;100443.28;5037031;28;941;-54
2022/05/08 08:16:06;;;;;;;;;;;;;;;24.55;35.41;100440.19;5054785;28;808;-55
2022/05/08 08:18:32;;;;;;;;;;;;;;;24.52;34.17;100440.41;5054609;28;1945;-53
2022/05/08 08:20:59;;;;;;;;;;;;;;;24.29;35.61;100448.38;5054552;28;923;-54
2022/05/08 08:23:27;;;;;;;;;;;;;;;24.28;34.90;100443.97;5054707;28;830;-53
2022/05/08 08:28:56;;;;;;;;;;;;;;;24.03;35.93;100443.22;5052713;28;1456;-53
2022/05/08 08:31:24;;;;;;;;;;;;;;;24.12;35.33;100433.91;5054487;28;1168;-54
2022/05/08 08:33:50;;;;;;;;;;;;;;;24.12;35.41;100435.97;5054507;28;869;-54
2022/05/08 08:36:17;;;;;;;;;;;;;;;23.76;36.22;100434.94;5054702;28;847;-57
2022/05/08 08:38:44;;;;;;;;;;;;;;;23.64;35.89;100431.03;5054790;28;1969;-54
2022/05/08 08:41:13;;;;;;;;;;;;;;;23.40;35.62;100434.59;5055183;28;747;-54
2022/05/08 08:49:28;;;;;;;;;;;;;;;23.83;37.72;100443.84;5054271;28;606;-52
2022/05/08 08:51:55;;;;;;;;;;;;;;;24.27;35.64;100433.97;5053637;28;1645;-54
2022/05/08 08:54:22;;;;;;;;;;;;;;;23.76;35.25;100432.09;5053983;28;890;-53
2022/05/08 08:56:49;;;;;;;;;;;;;;;23.32;36.41;100439.03;5053880;28;1885;-52
2022/05/08 08:59:16;;;;;;;;;;;;;;;22.92;35.95;100433.63;5054020;28;845;-55
2022/05/08 09:01:43;;;;;;;;;;;;;;;22.66;35.44;100436.00;5053358;28;977;-55
2022/05/08 09:04:13;;;;;;;;;;;;;;;22.47;36.59;100435.22;5053897;28;963;-52
2022/05/08 09:06:43;;;;;;;;;;;;;;;22.64;37.05;100439.31;5036116;28;922;-54
2022/05/08 09:09:23;;;;;;;;;;;;;;;22.55;37.59;100434.47;5054149;28;850;-54
2022/05/08 09:11:49;;;;;;;;;;;;;;;22.65;37.99;100426.00;5053604;28;867;-55
2022/05/08 09:14:29;;;;;;;;;;;;;;;22.75;39.43;100424.75;5053724;28;806;-55
2022/05/08 09:16:55;;;;;;;;;;;;;;;23.23;38.08;100422.13;5053507;28;1878;-51
2022/05/08 09:19:37;;;;;;;;;;;;;;;23.39;37.94;100418.16;5053699;28;854;-55
2022/05/08 09:22:05;;;;;;;;;;;;;;;23.00;37.29;100415.13;5053450;28;869;-56
2022/05/08 09:24:33;;;;;;;;;;;;;;;22.60;36.95;100416.94;5053542;28;818;-52
2022/05/08 09:27:29;;;;;;;;;;;;;;;22.50;38.03;100411.78;5053374;28;955;-53
2022/05/08 09:30:06;;;;;;;;;;;;;;;22.36;37.20;100413.97;5023491;28;1502;-53
2022/05/08 09:32:42;;;;;;;;;;;;;;;22.52;38.42;100415.69;5033448;28;891;-54
2022/05/08 09:35:08;;;;;;;;;;;;;;;22.65;38.58;100415.50;5033283;28;877;-54
2022/05/08 09:37:56;;;;;;;;;;;;;;;22.50;38.62;100417.41;5033381;28;1914;-54
2022/05/08 09:40:23;;;;;;;;;;;;;;;22.27;38.14;100407.56;5033259;28;867;-54
2022/05/08 09:42:49;;;;;;;;;;;;;;;21.70;37.88;100405.91;5033156;28;886;-51
2022/05/08 09:45:16;;;;;;;;;;;;;;;21.30;40.50;100401.03;5033205;28;842;-53
2022/05/08 09:47:47;;;;;;;;;;;;;;;21.19;39.99;100392.25;5015455;28;1197;-54
2022/05/08 09:50:16;;;;;;;;;;;;;;;21.24;40.10;100391.66;5033160;28;886;-54
2022/05/08 09:52:43;;;;;;;;;;;;;;;21.05;40.59;100404.81;5033073;28;870;-56
2022/05/08 09:55:14;;;;;;;;;;;;;;;20.96;42.30;100397.13;5033148;28;961;-55
2022/05/08 09:57:41;;;;;;;;;;;;;;;21.04;41.83;100397.66;5032832;28;1973;-55
2022/05/08 10:26:17;;;;;;;;;;;;;;;21.70;41.75;100380.59;5706943;23;1700;-53
2022/05/08 10:29:11;;;;;;;;;;;;;;;21.63;42.00;100368.84;5032455;28;826;-57
2022/05/08 10:31:45;;;;;;;;;;;;;;;21.71;42.37;100362.44;5029949;28;1919;-55
2022/05/08 10:34:13;;;;;;;;;;;;;;;21.81;40.65;100366.84;5014564;28;926;-54
2022/05/08 10:36:40;;;;;;;;;;;;;;;21.84;41.21;100369.97;5032161;28;1918;-55
2022/05/08 10:39:25;;;;;;;;;;;;;;;22.10;40.44;100367.63;5032415;28;1113;-54
2022/05/08 10:41:53;;;;;;;;;;;;;;;21.98;40.92;100367.31;5031963;28;890;-55
2022/05/08 10:44:35;;;;;;;;;;;;;;;21.98;41.36;100366.56;5032045;28;915;-54
2022/05/08 10:59:46;;;;;;;;;;;;;;;21.91;41.11;100335.88;5032297;28;668;-56
2022/05/08 11:02:12;;;;;;;;;;;;;;;22.05;41.03;100351.38;4988369;28;1268;-55
2022/05/08 11:04:51;;;;;;;;;;;;;;;22.28;40.84;100350.00;5031938;28;894;-56
2022/05/08 11:10:24;;;;;;;;;;;;;;;22.57;40.01;100344.63;5031868;28;613;-54
2022/05/08 11:12:56;;;;;;;;;;;;;;;22.82;39.37;100340.63;5031893;28;944;-55
2022/05/08 11:15:23;;;;;;;;;;;;;;;22.74;38.30;100339.41;5031672;28;806;-55
2022/05/08 11:18:06;;;;;;;;;;;;;;;22.79;37.42;100341.59;5031555;28;1886;-55
2022/05/08 11:20:36;;;;;;;;;;;;;;;22.55;37.15;100335.09;5031676;28;870;-55
2022/05/08 11:23:04;;;;;;;;;;;;;;;22.48;37.49;100343.88;5031510;28;927;-55
2022/05/08 11:25:31;;;;;;;;;;;;;;;22.52;37.84;100338.84;5031285;28;1071;-56
2022/05/08 11:27:58;;;;;;;;;;;;;;;22.51;38.04;100338.09;5031229;28;1315;-56
2022/05/08 11:30:32;;;;;;;;;;;;;;;22.61;38.79;100330.38;5031476;28;791;-56
2022/05/08 11:36:04;;;;;;;;;;;;;;;22.35;38.35;100336.38;5031898;28;732;-56
2022/05/08 11:38:45;;;;;;;;;;;;;;;22.48;38.38;100330.56;5031549;28;1969;-56
2022/05/08 11:41:13;;;;;;;;;;;;;;;22.84;38.46;100329.69;5031191;28;902;-55
2022/05/08 11:43:41;;;;;;;;;;;;;;;22.87;36.44;100327.16;5031368;28;873;-56
2022/05/08 11:46:09;;;;;;;;;;;;;;;22.92;36.95;100318.09;5031289;28;902;-56
2022/05/08 11:58:03;;;;;;;;;;;;;;;22.94;35.62;100321.22;5031522;28;1961;-56
2022/05/08 12:00:31;;;;;;;;;;;;;;;22.84;36.35;100317.63;5031286;28;822;-56
2022/05/08 12:02:57;;;;;;;;;;;;;;;22.98;36.55;100316.97;5031368;28;943;-56
2022/05/08 12:05:25;;;;;;;;;;;;;;;22.86;36.88;100309.47;5031139;28;795;-56
2022/05/08 12:07:52;;;;;;;;;;;;;;;23.09;36.48;100312.88;5031048;28;886;-55
2022/05/08 12:10:20;;;;;;;;;;;;;;;23.21;36.06;100311.84;5031122;28;1213;-57
2022/05/08 12:16:10;;;;;;;;;;;;;;;23.10;35.84;100305.97;5031180;28;664;-55
2022/05/08 12:21:48;;;;;;;;;;;;;;;22.98;36.27;100310.50;5031183;28;672;-56
2022/05/08 12:24:19;;;;;;;;;;;;;;;23.34;36.87;100300.34;5030908;28;818;-57
2022/05/08 12:26:46;;;;;;;;;;;;;;;23.44;35.69;100305.44;5030827;28;1404;-55
2022/05/08 12:29:19;;;;;;;;;;;;;;;23.47;35.58;100297.28;5031199;28;870;-57
2022/05/08 12:31:46;;;;;;;;;;;;;;;23.34;35.95;100300.34;5030904;28;837;-56
2022/05/08 12:34:13;;;;;;;;;;;;;;;23.19;36.17;100303.09;5030782;28;843;-56
2022/05/08 12:36:40;;;;;;;;;;;;;;;23.18;36.68;100293.84;5030877;28;949;-57
2022/05/08 12:39:10;;;;;;;;;;;;;;;23.23;36.99;100298.81;5034464;28;1902;-56
2022/05/08 12:41:40;;;;;;;;;;;;;;;23.13;37.08;100302.97;5034376;28;872;-54
2022/05/08 12:44:07;;;;;;;;;;;;;;;22.91;37.22;100291.91;5034545;28;858;-55
2022/05/08 12:46:34;;;;;;;;;;;;;;;22.73;37.91;100300.47;5034703;28;861;-56
2022/05/08 12:49:04;;;;;;;;;;;;;;;22.59;38.52;100285.78;5034260;28;935;-56
2022/05/08 12:51:40;;;;;;;;;;;;;;;22.39;39.78;100294.75;5034305;28;889;-56
2022/05/08 12:54:07;;;;;;;;;;;;;;;22.49;40.13;100289.88;5034290;28;807;-57
2022/05/08 12:56:34;;;;;;;;;;;;;;;22.65;39.19;100290.78;5034246;28;914;-56
2022/05/08 13:01:47;;;;;;;;;;;;;;;22.58;39.32;100287.03;5034411;28;629;-56
2022/05/08 13:04:14;;;;;;;;;;;;;;;22.32;39.77;100283.81;5033974;28;770;-56
2022/05/08 13:06:41;;;;;;;;;;;;;;;22.21;40.64;100281.47;5033855;28;917;-56
2022/05/08 13:09:08;;;;;;;;;;;;;;;22.09;41.46;100273.97;5033768;28;912;-54
2022/05/08 13:11:35;;;;;;;;;;;;;;;21.87;41.41;100276.16;5034027;28;837;-56
2022/05/08 13:14:04;;;;;;;;;;;;;;;21.77;41.33;100281.03;5033951;28;795;-56
2022/05/08 13:16:30;;;;;;;;;;;;;;;21.76;41.16;100269.00;5033976;28;866;-56
2022/05/08 13:18:57;;;;;;;;;;;;;;;21.72;42.29;100268.38;5016289;28;1951;-56
2022/05/08 13:21:25;;;;;;;;;;;;;;;21.55;42.12;100276.34;5034368;28;799;-56
2022/05/08 13:23:52;;;;;;;;;;;;;;;21.45;43.71;100265.53;5033776;28;826;-54
2022/05/08 13:26:19;;;;;;;;;;;;;;;21.72;42.30;100264.75;5033855;28;1364;-57
2022/05/08 13:28:46;;;;;;;;;;;;;;;21.91;42.14;100262.72;5033890;28;845;-55
2022/05/08 13:31:12;;;;;;;;;;;;;;;21.83;42.25;100265.09;5033690;28;857;-56
2022/05/08 13:33:41;;;;;;;;;;;;;;;21.73;41.84;100264.31;5034319;28;803;-55
2022/05/08 13:36:08;;;;;;;;;;;;;;;21.55;43.21;100267.09;5033568;28;862;-56
2022/05/08 13:38:36;;;;;;;;;;;;;;;21.47;42.57;100263.81;5033405;28;1918;-56
2022/05/08 13:41:02;;;;;;;;;;;;;;;21.35;43.05;100261.91;5033367;28;863;-55
2022/05/08 13:43:28;;;;;;;;;;;;;;;21.12;43.62;100252.81;5033436;28;941;-53
2022/05/08 13:45:55;;;;;;;;;;;;;;;20.98;43.72;100262.59;5033470;28;874;-55
2022/05/08 13:48:22;;;;;;;;;;;;;;;20.91;43.82;100253.66;5033575;28;853;-53
2022/05/08 13:50:49;;;;;;;;;;;;;;;21.00;44.69;100254.47;5033408;28;791;-56
2022/05/08 13:53:20;;;;;;;;;;;;;;;21.18;43.18;100261.38;5033151;28;918;-56
2022/05/08 14:08:03;;;;;;;;;;;;;;;20.61;42.73;100256.03;5033457;28;680;-55
2022/05/08 14:10:30;;;;;;;;;;;;;;;20.49;43.94;100249.25;5032687;28;939;-56
2022/05/08 14:12:57;;;;;;;;;;;;;;;20.52;44.51;100253.94;5032837;28;845;-54
2022/05/08 14:15:24;;;;;;;;;;;;;;;20.45;43.31;100251.41;5032710;28;844;-54
2022/05/08 14:17:53;;;;;;;;;;;;;;;20.27;43.93;100252.09;5032436;28;1886;-51
2022/05/08 14:20:20;;;;;;;;;;;;;;;20.33;44.05;100260.69;5032602;28;950;-55
2022/05/08 14:22:48;;;;;;;;;;;;;;;20.51;44.09;100252.38;5032395;28;863;-53
2022/05/08 14:25:14;;;;;;;;;;;;;;;20.51;43.69;100262.84;5032773;28;904;-52
2022/05/08 14:27:41;;;;;;;;;;;;;;;20.38;43.75;100255.28;5032317;28;1419;-55
2022/05/08 14:30:10;;;;;;;;;;;;;;;20.11;44.55;100261.50;5032432;28;1225;-56
2022/05/08 14:44:48;;;;;;;;;;;;;;;19.90;44.08;100262.28;5032183;28;609;-56
2022/05/08 14:47:16;;;;;;;;;;;;;;;19.78;43.85;100267.50;5032033;28;837;-56
2022/05/08 14:49:43;;;;;;;;;;;;;;;19.54;44.59;100271.91;5014206;28;937;-55
2022/05/08 14:52:10;;;;;;;;;;;;;;;19.62;45.29;100267.63;5032022;28;889;-52
2022/05/08 14:54:37;;;;;;;;;;;;;;;19.59;44.98;100271.34;5032087;28;838;-55